createdAt,value
2019-02-27T00:00:37.463Z,0.41
2019-02-27T00:01:37.463Z,0.31
2019-02-27T00:02:37.424Z,0.35
2019-02-27T00:03:37.339Z,0.29
2019-02-27T00:04:37.309Z,0.23
2019-02-27T00:05:38.887Z,0.11
2019-02-27T00:06:37.251Z,0.13
2019-02-27T00:07:37.154Z,0.23
2019-02-27T00:08:37.123Z,0.32
2019-02-27T00:09:37.077Z,0.28
2019-02-27T00:10:39.265Z,0.31
2019-02-27T00:11:36.997Z,0.32
2019-02-27T00:12:36.942Z,0.46
2019-02-27T00:13:36.910Z,0.42
2019-02-27T00:14:36.866Z,0.44
2019-02-27T00:15:37.943Z,0.39
2019-02-27T00:16:36.784Z,0.36
2019-02-27T00:17:36.732Z,0.41
2019-02-27T00:18:36.712Z,0.36
2019-02-27T00:19:36.672Z,0.36
2019-02-27T00:20:37.069Z,0.38
2019-02-27T00:21:36.593Z,0.29
2019-02-27T00:22:36.535Z,0.31
2019-02-27T00:23:36.477Z,0.15
2019-02-27T00:24:36.453Z,0.18
2019-02-27T00:25:36.745Z,0.08
2019-02-27T00:26:36.352Z,0.03
2019-02-27T00:27:36.314Z,-0.01
2019-02-27T00:28:36.282Z,-0.21
2019-02-27T00:29:36.231Z,-0.26
2019-02-27T00:30:38.119Z,-0.29
2019-02-27T00:31:36.136Z,-0.15
2019-02-27T00:32:36.146Z,-0.08
2019-02-27T00:33:36.054Z,0.00
2019-02-27T00:34:36.023Z,0.03
2019-02-27T00:35:38.681Z,0.17
2019-02-27T00:36:35.936Z,0.17
2019-02-27T00:37:35.889Z,0.08
2019-02-27T00:38:35.832Z,-0.01
2019-02-27T00:39:35.798Z,-0.01
2019-02-27T00:40:38.551Z,-0.15
2019-02-27T00:41:35.749Z,-0.16
2019-02-27T00:42:35.671Z,-0.26
2019-02-27T00:43:35.644Z,-0.40
2019-02-27T00:44:35.590Z,-0.43
2019-02-27T00:45:39.875Z,-0.44
2019-02-27T00:46:35.496Z,-0.52
2019-02-27T00:47:35.464Z,-0.52
2019-02-27T00:48:35.411Z,-0.40
2019-02-27T00:49:35.389Z,-0.43
2019-02-27T00:50:38.924Z,-0.43
2019-02-27T00:51:35.318Z,-0.31
2019-02-27T00:52:35.264Z,-0.19
2019-02-27T00:53:35.207Z,-0.21
2019-02-27T00:54:35.158Z,-0.08
2019-02-27T00:55:38.565Z,-0.03
2019-02-27T00:56:35.103Z,0.07
2019-02-27T00:57:35.032Z,0.08
2019-02-27T00:58:35.036Z,0.15
2019-02-27T00:59:34.943Z,0.17
2019-02-27T01:00:39.095Z,0.20
2019-02-27T01:01:34.878Z,0.20
2019-02-27T01:02:34.816Z,0.13
2019-02-27T01:03:34.776Z,0.08
2019-02-27T01:04:35.209Z,0.03
2019-02-27T01:05:34.690Z,0.07
2019-02-27T01:06:34.641Z,0.02
2019-02-27T01:07:34.612Z,-0.14
2019-02-27T01:08:34.563Z,-0.11
2019-02-27T01:09:34.549Z,-0.11
2019-02-27T01:10:34.534Z,-0.08
2019-02-27T01:11:34.422Z,-0.15
2019-02-27T01:12:34.390Z,-0.14
2019-02-27T01:13:34.385Z,-0.28
2019-02-27T01:14:36.895Z,-0.23
2019-02-27T01:15:34.307Z,-0.37
2019-02-27T01:16:34.833Z,-0.42
2019-02-27T01:17:34.185Z,-0.42
2019-02-27T01:18:34.131Z,-0.58
2019-02-27T01:19:38.454Z,-0.55
2019-02-27T01:20:34.063Z,-0.46
2019-02-27T01:21:34.031Z,-0.40
2019-02-27T01:22:33.958Z,-0.26
2019-02-27T01:23:33.918Z,-0.26
2019-02-27T01:24:33.908Z,-0.14
2019-02-27T01:25:33.836Z,-0.11
2019-02-27T01:26:33.786Z,-0.16
2019-02-27T01:27:37.865Z,-0.14
2019-02-27T01:28:33.709Z,-0.19
2019-02-27T01:29:33.740Z,-0.11
2019-02-27T01:30:33.669Z,-0.22
2019-02-27T01:31:33.663Z,-0.18
2019-02-27T01:32:33.537Z,-0.15
2019-02-27T01:33:37.741Z,-0.07
2019-02-27T01:34:33.455Z,-0.21
2019-02-27T01:35:33.453Z,-0.10
2019-02-27T01:36:33.362Z,-0.07
2019-02-27T01:37:33.336Z,-0.19
2019-02-27T01:38:33.268Z,-0.14
2019-02-27T01:39:33.233Z,-0.14
2019-02-27T01:40:33.189Z,-0.21
2019-02-27T01:41:33.154Z,-0.15
2019-02-27T01:42:33.113Z,-0.16
2019-02-27T01:43:33.076Z,-0.21
2019-02-27T01:44:33.013Z,-0.15
2019-02-27T01:45:32.979Z,-0.22
2019-02-27T01:46:32.939Z,-0.21
2019-02-27T01:47:35.713Z,-0.22
2019-02-27T01:48:32.870Z,-0.15
2019-02-27T01:49:32.818Z,-0.08
2019-02-27T01:50:32.752Z,0.00
2019-02-27T01:51:32.724Z,-0.01
2019-02-27T01:52:34.077Z,0.00
2019-02-27T01:53:32.627Z,-0.10
2019-02-27T01:54:32.640Z,-0.07
2019-02-27T01:55:32.544Z,0.02
2019-02-27T01:56:32.549Z,-0.03
2019-02-27T01:57:34.124Z,0.03
2019-02-27T01:58:32.416Z,0.08
2019-02-27T01:59:32.396Z,-0.01
2019-02-27T02:00:32.344Z,-0.04
2019-02-27T02:01:32.329Z,-0.04
2019-02-27T02:02:32.260Z,-0.10
2019-02-27T02:03:55.928Z,-0.19
2019-02-27T02:04:32.241Z,-0.31
2019-02-27T02:05:32.155Z,-0.29
2019-02-27T02:06:32.949Z,-0.37
2019-02-27T02:07:32.059Z,-0.39
2019-02-27T02:08:32.002Z,-0.39
2019-02-27T02:09:31.964Z,-0.31
2019-02-27T02:10:31.917Z,-0.29
2019-02-27T02:11:32.727Z,-0.39
2019-02-27T02:12:31.843Z,-0.43
2019-02-27T02:13:31.763Z,-0.42
2019-02-27T02:14:31.763Z,-0.36
2019-02-27T02:15:31.681Z,-0.33
2019-02-27T02:16:34.097Z,-0.29
2019-02-27T02:17:31.593Z,-0.26
2019-02-27T02:18:31.566Z,-0.19
2019-02-27T02:19:31.547Z,-0.15
2019-02-27T02:20:31.483Z,-0.22
2019-02-27T02:21:32.048Z,-0.16
2019-02-27T02:22:31.396Z,-0.15
2019-02-27T02:23:31.377Z,-0.23
2019-02-27T02:24:31.347Z,-0.10
2019-02-27T02:25:31.289Z,-0.08
2019-02-27T02:26:32.108Z,-0.08
2019-02-27T02:27:31.164Z,-0.14
2019-02-27T02:28:31.140Z,-0.08
2019-02-27T02:29:31.126Z,-0.22
2019-02-27T02:30:31.043Z,-0.16
2019-02-27T02:31:30.997Z,-0.15
2019-02-27T02:32:30.962Z,-0.29
2019-02-27T02:33:30.916Z,-0.19
2019-02-27T02:34:30.941Z,-0.14
2019-02-27T02:35:30.851Z,-0.16
2019-02-27T02:36:30.787Z,-0.19
2019-02-27T02:37:33.739Z,-0.23
2019-02-27T02:38:30.727Z,-0.21
2019-02-27T02:39:30.694Z,-0.21
2019-02-27T02:40:32.034Z,-0.26
2019-02-27T02:41:30.603Z,-0.40
2019-02-27T02:42:30.537Z,-0.60
2019-02-27T02:43:30.486Z,-0.58
2019-02-27T02:44:30.441Z,-0.58
2019-02-27T02:45:33.195Z,-0.47
2019-02-27T02:46:30.353Z,-0.47
2019-02-27T02:47:30.417Z,-0.52
2019-02-27T02:48:31.232Z,-0.47
2019-02-27T02:49:30.377Z,-0.61
2019-02-27T02:50:30.178Z,-0.83
2019-02-27T02:51:30.141Z,-0.86
2019-02-27T02:52:30.107Z,-0.80
2019-02-27T02:53:30.052Z,-0.80
2019-02-27T02:54:36.395Z,-0.98
2019-02-27T02:55:32.212Z,-0.79
2019-02-27T02:56:29.929Z,-0.82
2019-02-27T02:57:35.909Z,-0.78
2019-02-27T02:58:29.835Z,-0.70
2019-02-27T02:59:29.814Z,-0.85
2019-02-27T03:00:29.798Z,-0.80
2019-02-27T03:01:29.718Z,-0.85
2019-02-27T03:02:29.916Z,-0.92
2019-02-27T03:03:35.984Z,-0.82
2019-02-27T03:04:29.606Z,-0.83
2019-02-27T03:05:29.532Z,-0.80
2019-02-27T03:06:34.410Z,-0.70
2019-02-27T03:07:29.450Z,-0.58
2019-02-27T03:08:29.432Z,-0.70
2019-02-27T03:09:30.854Z,-0.69
2019-02-27T03:10:29.354Z,-0.62
2019-02-27T03:11:29.277Z,-0.70
2019-02-27T03:12:30.963Z,-0.75
2019-02-27T03:13:29.246Z,-0.64
2019-02-27T03:14:29.284Z,-0.55
2019-02-27T03:15:29.673Z,-0.58
2019-02-27T03:16:29.083Z,-0.42
2019-02-27T03:17:29.018Z,-0.46
2019-02-27T03:18:29.586Z,-0.54
2019-02-27T03:19:28.943Z,-0.54
2019-02-27T03:20:28.901Z,-0.55
2019-02-27T03:21:28.993Z,-0.54
2019-02-27T03:22:28.814Z,-0.51
2019-02-27T03:23:28.777Z,-0.64
2019-02-27T03:24:29.060Z,-0.57
2019-02-27T03:25:28.677Z,-0.61
2019-02-27T03:26:28.628Z,-0.67
2019-02-27T03:27:30.619Z,-0.58
2019-02-27T03:28:28.544Z,-0.51
2019-02-27T03:29:28.494Z,-0.57
2019-02-27T03:30:34.767Z,-0.42
2019-02-27T03:31:28.433Z,-0.43
2019-02-27T03:32:28.371Z,-0.42
2019-02-27T03:33:28.325Z,-0.43
2019-02-27T03:34:28.284Z,-0.42
2019-02-27T03:35:29.379Z,-0.42
2019-02-27T03:36:28.250Z,-0.46
2019-02-27T03:37:28.147Z,-0.44
2019-02-27T03:38:28.108Z,-0.43
2019-02-27T03:39:28.062Z,-0.37
2019-02-27T03:40:28.015Z,-0.46
2019-02-27T03:41:27.989Z,-0.42
2019-02-27T03:42:30.790Z,-0.44
2019-02-27T03:43:27.897Z,-0.46
2019-02-27T03:44:27.878Z,-0.42
2019-02-27T03:45:31.016Z,-0.44
2019-02-27T03:46:27.764Z,-0.51
2019-02-27T03:47:27.797Z,-0.69
2019-02-27T03:48:28.408Z,-0.62
2019-02-27T03:49:27.639Z,-0.73
2019-02-27T03:50:27.585Z,-0.62
2019-02-27T03:51:27.550Z,-0.58
2019-02-27T03:52:27.527Z,-0.61
2019-02-27T03:53:27.467Z,-0.72
2019-02-27T03:54:27.433Z,-0.83
2019-02-27T03:55:31.812Z,-0.80
2019-02-27T03:56:27.359Z,-0.92
2019-02-27T03:57:27.301Z,-1.05
2019-02-27T03:58:30.449Z,-1.13
2019-02-27T03:59:27.209Z,-1.17
2019-02-27T04:00:27.160Z,-1.15
2019-02-27T04:01:30.613Z,-1.16
2019-02-27T04:02:27.071Z,-1.19
2019-02-27T04:03:27.020Z,-1.15
2019-02-27T04:04:30.553Z,-1.30
2019-02-27T04:05:26.999Z,-1.25
2019-02-27T04:06:26.908Z,-1.23
2019-02-27T04:07:31.515Z,-1.27
2019-02-27T04:08:26.813Z,-1.12
2019-02-27T04:09:26.782Z,-1.12
2019-02-27T04:10:30.894Z,-0.99
2019-02-27T04:11:26.701Z,-1.04
2019-02-27T04:12:26.647Z,-1.04
2019-02-27T04:13:27.864Z,-1.04
2019-02-27T04:14:26.583Z,-1.12
2019-02-27T04:15:26.545Z,-1.16
2019-02-27T04:16:29.304Z,-1.27
2019-02-27T04:17:26.419Z,-1.34
2019-02-27T04:18:28.377Z,-1.43
2019-02-27T04:19:26.352Z,-1.45
2019-02-27T04:20:26.340Z,-1.49
2019-02-27T04:21:26.256Z,-1.54
2019-02-27T04:22:26.210Z,-1.45
2019-02-27T04:23:26.166Z,-1.31
2019-02-27T04:24:26.117Z,-1.16
2019-02-27T04:25:31.005Z,-1.12
2019-02-27T04:26:26.028Z,-0.99
2019-02-27T04:27:26.011Z,-0.79
2019-02-27T04:28:29.489Z,-0.82
2019-02-27T04:29:25.919Z,-0.72
2019-02-27T04:30:25.891Z,-0.86
2019-02-27T04:31:29.707Z,-0.72
2019-02-27T04:32:25.787Z,-0.70
2019-02-27T04:33:25.749Z,-0.69
2019-02-27T04:34:25.729Z,-0.62
2019-02-27T04:35:25.678Z,-0.65
2019-02-27T04:36:25.614Z,-0.70
2019-02-27T04:37:25.587Z,-0.64
2019-02-27T04:38:27.519Z,-0.73
2019-02-27T04:39:25.502Z,-0.67
2019-02-27T04:40:25.442Z,-0.72
2019-02-27T04:41:25.399Z,-0.79
2019-02-27T04:42:25.746Z,-0.82
2019-02-27T04:43:25.325Z,-0.82
2019-02-27T04:44:25.305Z,-0.78
2019-02-27T04:45:25.245Z,-0.67
2019-02-27T04:46:25.210Z,-0.58
2019-02-27T04:47:28.830Z,-0.49
2019-02-27T04:48:27.051Z,-0.62
2019-02-27T04:49:25.042Z,-0.58
2019-02-27T04:50:25.015Z,-0.75
2019-02-27T04:51:24.973Z,-0.91
2019-02-27T04:52:24.958Z,-0.82
2019-02-27T04:53:24.891Z,-0.95
2019-02-27T04:54:24.847Z,-0.94
2019-02-27T04:55:24.789Z,-0.97
2019-02-27T04:56:24.741Z,-0.99
2019-02-27T04:57:24.743Z,-0.83
2019-02-27T04:58:24.659Z,-0.83
2019-02-27T04:59:24.629Z,-0.89
2019-02-27T05:00:26.390Z,-0.89
2019-02-27T05:01:24.526Z,-0.80
2019-02-27T05:02:24.477Z,-0.91
2019-02-27T05:03:25.800Z,-0.82
2019-02-27T05:04:24.395Z,-0.94
2019-02-27T05:05:24.389Z,-0.97
2019-02-27T05:06:24.332Z,-0.97
2019-02-27T05:07:24.266Z,-1.07
2019-02-27T05:08:26.899Z,-1.07
2019-02-27T05:09:24.174Z,-1.13
2019-02-27T05:10:24.152Z,-1.22
2019-02-27T05:11:24.089Z,-1.17
2019-02-27T05:12:24.053Z,-1.15
2019-02-27T05:13:23.998Z,-1.09
2019-02-27T05:14:24.814Z,-1.09
2019-02-27T05:15:23.916Z,-0.98
2019-02-27T05:16:23.864Z,-1.01
2019-02-27T05:17:23.838Z,-1.09
2019-02-27T05:18:23.776Z,-1.10
2019-02-27T05:19:23.767Z,-1.15
2019-02-27T05:20:23.688Z,-1.15
2019-02-27T05:21:23.694Z,-1.17
2019-02-27T05:22:26.582Z,-1.15
2019-02-27T05:23:23.630Z,-1.23
2019-02-27T05:24:23.510Z,-1.34
2019-02-27T05:25:24.380Z,-1.46
2019-02-27T05:26:27.061Z,-1.45
2019-02-27T05:27:23.390Z,-1.46
2019-02-27T05:28:23.361Z,-1.54
2019-02-27T05:29:23.409Z,-1.52
2019-02-27T05:30:23.281Z,-1.48
2019-02-27T05:31:23.254Z,-1.49
2019-02-27T05:32:27.889Z,-1.40
2019-02-27T05:33:23.138Z,-1.27
2019-02-27T05:34:23.087Z,-1.34
2019-02-27T05:35:24.254Z,-1.23
2019-02-27T05:36:22.993Z,-1.27
2019-02-27T05:37:22.960Z,-1.33
2019-02-27T05:38:22.962Z,-1.40
2019-02-27T05:39:22.882Z,-1.51
2019-02-27T05:40:23.086Z,-1.49
2019-02-27T05:41:22.779Z,-1.49
2019-02-27T05:42:22.773Z,-1.58
2019-02-27T05:43:22.721Z,-1.72
2019-02-27T05:44:22.698Z,-1.59
2019-02-27T05:45:22.628Z,-1.48
2019-02-27T05:46:22.561Z,-1.45
2019-02-27T05:47:22.548Z,-1.30
2019-02-27T05:48:22.483Z,-1.27
2019-02-27T05:49:26.772Z,-1.16
2019-02-27T05:50:22.408Z,-1.15
2019-02-27T05:51:22.356Z,-1.13
2019-02-27T05:52:22.324Z,-1.09
2019-02-27T05:53:22.892Z,-1.07
2019-02-27T05:54:22.212Z,-0.99
2019-02-27T05:55:22.224Z,-0.99
2019-02-27T05:56:22.156Z,-1.07
2019-02-27T05:57:23.332Z,-1.04
2019-02-27T05:58:23.063Z,-0.98
2019-02-27T05:59:22.024Z,-0.95
2019-02-27T06:00:21.966Z,-0.91
2019-02-27T06:01:21.921Z,-1.05
2019-02-27T06:02:21.878Z,-1.12
2019-02-27T06:03:21.856Z,-1.01
2019-02-27T06:04:24.980Z,-1.07
2019-02-27T06:05:21.748Z,-1.09
2019-02-27T06:06:21.697Z,-0.99
2019-02-27T06:07:21.665Z,-0.91
2019-02-27T06:08:21.607Z,-0.82
2019-02-27T06:09:21.574Z,-0.76
2019-02-27T06:10:23.407Z,-0.76
2019-02-27T06:11:21.505Z,-0.83
2019-02-27T06:12:21.437Z,-0.98
2019-02-27T06:13:21.394Z,-0.78
2019-02-27T06:14:21.985Z,-0.98
2019-02-27T06:15:21.343Z,-0.97
2019-02-27T06:16:21.299Z,-0.92
2019-02-27T06:17:21.285Z,-1.04
2019-02-27T06:18:23.406Z,-1.02
2019-02-27T06:19:21.180Z,-0.89
2019-02-27T06:20:21.126Z,-0.89
2019-02-27T06:21:30.396Z,-0.83
2019-02-27T06:23:15.310Z,-0.78
2019-02-27T06:24:14.505Z,-0.72
2019-02-27T06:26:09.066Z,-0.75
2019-02-27T06:27:07.422Z,-0.62
2019-02-27T06:29:01.493Z,-0.70
2019-02-27T06:30:01.437Z,-0.64
2019-02-27T06:31:53.924Z,-0.67
2019-02-27T06:32:53.875Z,-0.61
2019-02-27T06:34:47.652Z,-0.72
2019-02-27T06:35:49.327Z,-0.92
2019-02-27T06:37:40.110Z,-0.94
2019-02-27T06:38:39.766Z,-0.97
2019-02-27T06:41:34.159Z,-1.01
2019-02-27T06:43:27.919Z,-0.98
2019-02-27T06:44:27.150Z,-0.94
2019-02-27T06:46:20.753Z,-0.92
2019-02-27T06:47:19.189Z,-0.79
2019-02-27T06:49:17.331Z,-0.78
2019-02-27T06:50:12.128Z,-0.78
2019-02-27T06:52:09.041Z,-0.67
2019-02-27T06:53:06.297Z,-0.67
2019-02-27T06:55:00.498Z,-0.60
2019-02-27T06:56:02.950Z,-0.46
2019-02-27T06:57:53.462Z,-0.40
2019-02-27T06:58:52.507Z,-0.46
2019-02-27T07:00:46.424Z,-0.42
2019-02-27T07:01:47.525Z,-0.29
2019-02-27T07:03:38.876Z,-0.22
2019-02-27T07:04:39.484Z,-0.16
2019-02-27T07:06:31.834Z,-0.07
2019-02-27T07:07:31.924Z,-0.05
2019-02-27T07:09:24.842Z,0.08
2019-02-27T07:10:25.245Z,0.11
2019-02-27T07:12:30.260Z,0.33
2019-02-27T07:13:30.395Z,0.44
2019-02-27T07:15:23.407Z,0.39
2019-02-27T07:16:23.743Z,0.50
2019-02-27T07:18:15.832Z,0.98
2019-02-27T07:19:16.425Z,1.40
2019-02-27T07:21:10.364Z,2.45
2019-02-27T07:22:12.506Z,3.13
2019-02-27T07:24:03.891Z,4.16
2019-02-27T07:25:06.384Z,4.72
2019-02-27T07:26:56.143Z,5.76
2019-02-27T07:27:55.831Z,6.31
2019-02-27T07:29:49.199Z,7.23
2019-02-27T07:30:48.774Z,7.68
2019-02-27T07:32:42.226Z,8.58
2019-02-27T07:33:41.766Z,8.98
2019-02-27T07:35:35.199Z,9.56
2019-02-27T07:36:35.984Z,9.69
2019-02-27T07:38:28.162Z,9.20
2019-02-27T07:39:27.770Z,8.63
2019-02-27T07:41:22.640Z,8.00
2019-02-27T07:42:22.248Z,7.77
2019-02-27T07:44:15.712Z,7.37
2019-02-27T07:45:15.339Z,7.53
2019-02-27T07:47:08.806Z,7.87
2019-02-27T07:48:08.310Z,8.28
2019-02-27T07:50:02.666Z,8.61
2019-02-27T07:51:01.785Z,8.92
2019-02-27T07:52:54.859Z,9.57
2019-02-27T07:53:55.083Z,9.96
2019-02-27T07:55:47.936Z,10.26
2019-02-27T07:56:47.501Z,10.33
2019-02-27T07:58:41.001Z,10.12
2019-02-27T07:59:40.565Z,9.84
2019-02-27T08:01:43.290Z,8.66
2019-02-27T08:02:36.204Z,8.01
2019-02-27T08:04:29.178Z,7.63
2019-02-27T08:05:29.186Z,8.00
2019-02-27T08:07:22.691Z,8.83
2019-02-27T08:08:23.750Z,8.89
2019-02-27T08:10:15.246Z,8.52
2019-02-27T08:11:15.152Z,8.22
2019-02-27T08:13:08.854Z,7.89
2019-02-27T08:14:07.848Z,7.95
2019-02-27T08:16:01.399Z,8.63
2019-02-27T08:17:02.438Z,9.05
2019-02-27T08:18:54.364Z,9.79
2019-02-27T08:19:54.397Z,10.18
2019-02-27T08:21:47.497Z,10.52
2019-02-27T08:22:48.204Z,10.48
2019-02-27T08:24:41.093Z,10.04
2019-02-27T08:25:40.803Z,9.76
2019-02-27T08:27:34.021Z,9.14
2019-02-27T08:28:33.586Z,8.94
2019-02-27T08:30:27.047Z,8.91
2019-02-27T08:31:28.342Z,8.91
2019-02-27T08:33:20.132Z,9.23
2019-02-27T08:34:20.012Z,9.57
2019-02-27T08:36:13.223Z,10.05
2019-02-27T08:37:12.737Z,10.23
2019-02-27T08:40:06.202Z,10.32
2019-02-27T08:42:03.350Z,10.32
2019-02-27T08:42:59.230Z,10.29
2019-02-27T08:44:52.347Z,10.47
2019-02-27T08:45:52.316Z,10.53
2019-02-27T08:47:45.447Z,11.00
2019-02-27T08:48:49.818Z,10.96
2019-02-27T08:50:38.977Z,11.18
2019-02-27T08:51:39.791Z,11.40
2019-02-27T08:52:38.372Z,11.52
2019-02-27T08:53:38.896Z,11.85
2019-02-27T08:54:38.325Z,12.16
2019-02-27T08:55:39.341Z,12.31
2019-02-27T08:56:38.297Z,12.64
2019-02-27T08:57:38.239Z,12.92
2019-02-27T08:58:38.736Z,12.96
2019-02-27T08:59:39.816Z,13.11
2019-02-27T09:00:37.820Z,13.14
2019-02-27T09:01:38.592Z,13.11
2019-02-27T09:02:39.658Z,13.04
2019-02-27T09:03:38.619Z,13.11
2019-02-27T09:04:38.695Z,13.25
2019-02-27T09:05:38.573Z,13.36
2019-02-27T09:06:38.548Z,13.36
2019-02-27T09:07:38.584Z,13.59
2019-02-27T09:08:37.968Z,13.79
2019-02-27T09:09:38.480Z,13.70
2019-02-27T09:10:38.447Z,13.78
2019-02-27T09:11:40.132Z,13.87
2019-02-27T09:12:40.098Z,13.77
2019-02-27T09:13:37.786Z,13.92
2019-02-27T09:14:37.805Z,14.00
2019-02-27T09:15:38.252Z,14.18
2019-02-27T09:16:37.325Z,14.40
2019-02-27T09:17:37.736Z,14.72
2019-02-27T09:18:37.700Z,14.89
2019-02-27T09:19:38.155Z,15.03
2019-02-27T09:20:37.636Z,14.92
2019-02-27T09:21:38.143Z,15.01
2019-02-27T09:22:38.139Z,15.25
2019-02-27T09:23:38.113Z,15.10
2019-02-27T09:24:37.516Z,14.92
2019-02-27T09:25:38.187Z,14.69
2019-02-27T09:26:38.010Z,14.80
2019-02-27T09:27:37.481Z,14.80
2019-02-27T09:28:37.946Z,14.96
2019-02-27T09:29:37.904Z,15.44
2019-02-27T09:30:36.991Z,16.21
2019-02-27T09:31:37.706Z,16.79
2019-02-27T09:32:37.357Z,16.67
2019-02-27T09:33:39.056Z,16.78
2019-02-27T09:34:37.290Z,17.28
2019-02-27T09:35:38.751Z,17.95
2019-02-27T09:36:37.258Z,18.00
2019-02-27T09:37:38.834Z,18.32
2019-02-27T09:38:37.196Z,18.30
2019-02-27T09:39:36.874Z,17.84
2019-02-27T09:40:38.837Z,17.89
2019-02-27T09:41:36.723Z,18.37
2019-02-27T09:42:36.667Z,18.65
2019-02-27T09:43:37.036Z,18.88
2019-02-27T09:44:37.258Z,18.70
2019-02-27T09:45:37.051Z,19.32
2019-02-27T09:46:37.030Z,19.13
2019-02-27T09:47:36.980Z,19.62
2019-02-27T09:48:37.432Z,19.86
2019-02-27T09:49:37.937Z,20.21
2019-02-27T09:50:36.977Z,20.67
2019-02-27T09:51:36.813Z,20.97
2019-02-27T09:52:36.847Z,21.19
2019-02-27T09:53:36.753Z,21.13
2019-02-27T09:54:36.940Z,21.09
2019-02-27T09:55:37.342Z,21.42
2019-02-27T09:56:36.792Z,21.29
2019-02-27T09:57:36.852Z,20.97
2019-02-27T09:58:36.743Z,20.48
2019-02-27T09:59:36.726Z,19.98
2019-02-27T10:00:36.312Z,20.23
2019-02-27T10:01:36.724Z,20.52
2019-02-27T10:02:36.655Z,20.80
2019-02-27T10:03:36.650Z,20.77
2019-02-27T10:04:36.664Z,20.91
2019-02-27T10:05:37.510Z,21.16
2019-02-27T10:06:36.594Z,21.50
2019-02-27T10:07:36.642Z,21.10
2019-02-27T10:08:36.597Z,20.57
2019-02-27T10:09:36.555Z,20.23
2019-02-27T10:10:36.567Z,20.24
2019-02-27T10:11:37.061Z,20.10
2019-02-27T10:12:36.526Z,20.48
2019-02-27T10:13:37.917Z,20.54
2019-02-27T10:14:36.489Z,20.95
2019-02-27T10:15:36.409Z,21.50
2019-02-27T10:16:36.392Z,21.62
2019-02-27T10:17:36.370Z,21.31
2019-02-27T10:18:36.422Z,21.47
2019-02-27T10:19:36.814Z,21.67
2019-02-27T10:20:37.320Z,21.49
2019-02-27T10:21:36.296Z,21.83
2019-02-27T10:22:36.260Z,22.45
2019-02-27T10:23:36.306Z,22.98
2019-02-27T10:24:36.918Z,23.33
2019-02-27T10:25:36.234Z,23.47
2019-02-27T10:26:36.241Z,23.65
2019-02-27T10:27:36.225Z,23.32
2019-02-27T10:28:39.068Z,23.33
2019-02-27T10:29:35.672Z,23.65
2019-02-27T10:30:35.669Z,23.90
2019-02-27T10:31:35.663Z,23.76
2019-02-27T10:32:36.601Z,23.87
2019-02-27T10:33:35.638Z,23.66
2019-02-27T10:34:36.287Z,23.35
2019-02-27T10:35:35.646Z,22.76
2019-02-27T10:36:38.162Z,22.45
2019-02-27T10:37:35.577Z,22.22
2019-02-27T10:38:40.201Z,21.90
2019-02-27T10:39:37.061Z,21.90
2019-02-27T10:40:35.498Z,21.79
2019-02-27T10:41:35.486Z,21.80
2019-02-27T10:42:35.447Z,21.62
2019-02-27T10:43:35.436Z,21.99
2019-02-27T10:44:35.410Z,22.21
2019-02-27T10:45:35.415Z,22.64
2019-02-27T10:46:35.370Z,22.65
2019-02-27T10:47:36.498Z,22.65
2019-02-27T10:48:36.775Z,22.68
2019-02-27T10:49:35.300Z,22.70
2019-02-27T10:50:36.107Z,22.92
2019-02-27T10:51:35.276Z,23.20
2019-02-27T10:52:35.277Z,23.32
2019-02-27T10:53:35.242Z,23.51
2019-02-27T10:54:37.061Z,23.57
2019-02-27T10:55:35.245Z,23.43
2019-02-27T10:56:35.194Z,23.31
2019-02-27T10:57:38.416Z,23.04
2019-02-27T10:58:35.150Z,23.27
2019-02-27T10:59:35.140Z,23.60
2019-02-27T11:00:35.127Z,23.76
2019-02-27T11:01:36.390Z,23.25
2019-02-27T11:02:35.095Z,23.40
2019-02-27T11:03:35.075Z,23.65
2019-02-27T11:04:36.325Z,24.06
2019-02-27T11:05:35.000Z,24.30
2019-02-27T11:06:37.779Z,24.57
2019-02-27T11:07:34.978Z,24.84
2019-02-27T11:08:34.946Z,24.67
2019-02-27T11:09:34.929Z,23.97
2019-02-27T11:10:34.914Z,23.83
2019-02-27T11:11:34.906Z,23.66
2019-02-27T11:12:34.889Z,23.54
2019-02-27T11:13:34.850Z,23.75
2019-02-27T11:14:34.840Z,23.80
2019-02-27T11:15:34.854Z,23.46
2019-02-27T11:16:34.842Z,23.12
2019-02-27T11:17:34.834Z,23.12
2019-02-27T11:18:34.788Z,23.58
2019-02-27T11:19:35.021Z,23.79
2019-02-27T11:20:34.809Z,24.20
2019-02-27T11:21:34.721Z,24.53
2019-02-27T11:22:34.694Z,24.83
2019-02-27T11:23:34.709Z,24.98
2019-02-27T11:24:34.655Z,25.08
2019-02-27T11:25:34.626Z,24.99
2019-02-27T11:26:34.608Z,24.45
2019-02-27T11:27:36.310Z,23.69
2019-02-27T11:28:34.618Z,23.46
2019-02-27T11:29:34.552Z,23.53
2019-02-27T11:30:36.825Z,23.66
2019-02-27T11:31:34.506Z,23.51
2019-02-27T11:32:34.521Z,23.42
2019-02-27T11:33:34.461Z,23.70
2019-02-27T11:34:34.455Z,23.42
2019-02-27T11:35:34.464Z,22.92
2019-02-27T11:36:35.007Z,22.49
2019-02-27T11:37:34.397Z,22.39
2019-02-27T11:38:34.396Z,21.99
2019-02-27T11:39:34.368Z,21.98
2019-02-27T11:40:34.350Z,22.35
2019-02-27T11:41:34.328Z,22.40
2019-02-27T11:42:34.306Z,22.36
2019-02-27T11:43:34.306Z,22.65
2019-02-27T11:44:34.329Z,22.79
2019-02-27T11:45:34.243Z,23.17
2019-02-27T11:46:35.171Z,22.72
2019-02-27T11:47:34.252Z,22.57
2019-02-27T11:48:34.193Z,22.68
2019-02-27T11:49:36.322Z,22.65
2019-02-27T11:50:34.150Z,22.36
2019-02-27T11:51:34.141Z,22.65
2019-02-27T11:52:34.147Z,22.80
2019-02-27T11:53:36.016Z,22.24
2019-02-27T11:54:34.104Z,22.20
2019-02-27T11:55:34.071Z,22.25
2019-02-27T11:56:34.068Z,22.00
2019-02-27T11:57:34.007Z,21.83
2019-02-27T11:58:35.235Z,21.80
2019-02-27T11:59:34.024Z,21.83
2019-02-27T12:00:33.959Z,22.00
2019-02-27T12:01:33.967Z,21.99
2019-02-27T12:02:37.152Z,21.54
2019-02-27T12:03:33.903Z,21.24
2019-02-27T12:04:33.897Z,21.59
2019-02-27T12:05:34.523Z,21.21
2019-02-27T12:06:33.854Z,21.06
2019-02-27T12:07:33.840Z,21.54
2019-02-27T12:08:33.815Z,21.44
2019-02-27T12:09:35.170Z,21.56
2019-02-27T12:10:33.759Z,21.49
2019-02-27T12:11:33.763Z,21.69
2019-02-27T12:12:33.750Z,21.42
2019-02-27T12:13:34.849Z,20.59
2019-02-27T12:14:33.675Z,20.89
2019-02-27T12:15:33.670Z,20.88
2019-02-27T12:16:33.665Z,20.97
2019-02-27T12:17:33.650Z,21.16
2019-02-27T12:18:34.554Z,21.58
2019-02-27T12:19:33.605Z,21.96
2019-02-27T12:20:33.570Z,21.79
2019-02-27T12:21:33.565Z,21.82
2019-02-27T12:22:35.308Z,21.96
2019-02-27T12:23:33.481Z,22.18
2019-02-27T12:24:33.492Z,21.91
2019-02-27T12:25:33.442Z,22.00
2019-02-27T12:26:34.432Z,22.15
2019-02-27T12:27:48.590Z,22.24
2019-02-27T12:28:33.379Z,22.20
2019-02-27T12:29:33.362Z,21.91
2019-02-27T12:30:37.141Z,21.64
2019-02-27T12:31:33.320Z,21.69
2019-02-27T12:32:33.345Z,21.54
2019-02-27T12:33:34.466Z,21.65
2019-02-27T12:34:34.046Z,21.44
2019-02-27T12:35:33.244Z,21.50
2019-02-27T12:36:33.239Z,21.59
2019-02-27T12:37:34.730Z,21.68
2019-02-27T12:38:33.180Z,21.72
2019-02-27T12:39:33.143Z,21.32
2019-02-27T12:40:33.141Z,21.50
2019-02-27T12:41:33.351Z,21.32
2019-02-27T12:42:37.342Z,20.79
2019-02-27T12:43:33.072Z,20.91
2019-02-27T12:44:34.488Z,20.76
2019-02-27T12:45:33.076Z,20.52
2019-02-27T12:46:34.205Z,20.23
2019-02-27T12:47:33.015Z,20.55
2019-02-27T12:48:33.018Z,20.94
2019-02-27T12:49:32.923Z,20.70
2019-02-27T12:50:32.922Z,20.74
2019-02-27T12:51:35.280Z,20.48
2019-02-27T12:52:32.947Z,20.54
2019-02-27T12:53:32.883Z,20.73
2019-02-27T12:54:32.816Z,20.42
2019-02-27T12:55:35.413Z,20.54
2019-02-27T12:56:32.814Z,20.57
2019-02-27T12:57:32.771Z,20.48
2019-02-27T12:58:32.734Z,20.61
2019-02-27T12:59:33.014Z,20.77
2019-02-27T13:00:32.709Z,20.84
2019-02-27T13:01:32.664Z,20.58
2019-02-27T13:02:35.797Z,20.67
2019-02-27T13:03:32.642Z,20.79
2019-02-27T13:04:32.608Z,20.66
2019-02-27T13:05:32.690Z,20.70
2019-02-27T13:06:37.167Z,20.76
2019-02-27T13:07:32.551Z,20.80
2019-02-27T13:08:32.496Z,20.88
2019-02-27T13:09:32.488Z,20.98
2019-02-27T13:10:34.062Z,20.87
2019-02-27T13:11:32.456Z,21.16
2019-02-27T13:12:32.434Z,21.17
2019-02-27T13:13:32.381Z,21.16
2019-02-27T13:14:33.267Z,21.07
2019-02-27T13:15:32.353Z,20.73
2019-02-27T13:16:32.337Z,20.52
2019-02-27T13:17:32.798Z,20.80
2019-02-27T13:18:32.740Z,21.03
2019-02-27T13:19:32.295Z,20.98
2019-02-27T13:20:32.257Z,20.64
2019-02-27T13:21:32.240Z,20.64
2019-02-27T13:22:32.183Z,20.52
2019-02-27T13:23:32.158Z,20.62
2019-02-27T13:24:32.152Z,20.35
2019-02-27T13:25:32.144Z,20.32
2019-02-27T13:26:34.745Z,20.58
2019-02-27T13:27:32.066Z,20.64
2019-02-27T13:28:32.106Z,20.55
2019-02-27T13:29:32.024Z,20.55
2019-02-27T13:30:32.014Z,20.35
2019-02-27T13:31:31.994Z,20.43
2019-02-27T13:32:31.963Z,20.51
2019-02-27T13:33:32.940Z,20.59
2019-02-27T13:34:31.918Z,20.48
2019-02-27T13:35:31.889Z,20.35
2019-02-27T13:36:34.130Z,20.36
2019-02-27T13:37:31.831Z,20.13
2019-02-27T13:38:31.818Z,20.03
2019-02-27T13:39:31.794Z,20.02
2019-02-27T13:40:35.160Z,19.98
2019-02-27T13:41:31.737Z,19.91
2019-02-27T13:42:31.717Z,19.88
2019-02-27T13:43:31.704Z,19.39